sensor_id;sensor_type;location;lat;lon;timestamp;P1;durP1;ratioP1;P2;durP2;ratioP2
40595;SDS011;26304;48.794;9.820;2023-10-19T00:01:34;1.52;;;1.42;;
40595;SDS011;26304;48.794;9.820;2023-10-19T00:03:58;2.10;;;2.00;;
40595;SDS011;26304;48.794;9.820;2023-10-19T00:06:20;1.75;;;1.65;;
40595;SDS011;26304;48.794;9.820;2023-10-19T00:08:42;1.52;;;1.42;;
40595;SDS011;26304;48.794;9.820;2023-10-19T00:11:06;1.75;;;1.65;;
40595;SDS011;26304;48.794;9.820;2023-10-19T00:13:30;1.67;;;1.58;;
40595;SDS011;26304;48.794;9.820;2023-10-19T00:15:51;1.85;;;1.73;;
40595;SDS011;26304;48.794;9.820;2023-10-19T00:18:14;1.60;;;1.50;;
40595;SDS011;26304;48.794;9.820;2023-10-19T00:20:43;1.80;;;1.70;;
40595;SDS011;26304;48.794;9.820;2023-10-19T00:23:12;1.70;;;1.60;;
40595;SDS011;26304;48.794;9.820;2023-10-19T00:25:34;2.38;;;1.80;;
40595;SDS011;26304;48.794;9.820;2023-10-19T00:28:03;3.38;;;1.70;;
40595;SDS011;26304;48.794;9.820;2023-10-19T00:30:25;2.70;;;1.65;;
40595;SDS011;26304;48.794;9.820;2023-10-19T00:32:53;1.80;;;1.70;;
40595;SDS011;26304;48.794;9.820;2023-10-19T00:35:17;1.65;;;1.55;;
40595;SDS011;26304;48.794;9.820;2023-10-19T00:37:48;1.50;;;1.40;;
40595;SDS011;26304;48.794;9.820;2023-10-19T00:40:13;2.33;;;1.50;;
40595;SDS011;26304;48.794;9.820;2023-10-19T00:42:48;1.60;;;1.50;;
40595;SDS011;26304;48.794;9.820;2023-10-19T00:45:16;1.60;;;1.50;;
40595;SDS011;26304;48.794;9.820;2023-10-19T00:47:45;1.67;;;1.58;;
40595;SDS011;26304;48.794;9.820;2023-10-19T00:50:08;1.80;;;1.70;;
40595;SDS011;26304;48.794;9.820;2023-10-19T00:52:37;1.90;;;1.80;;
40595;SDS011;26304;48.794;9.820;2023-10-19T00:55:05;1.70;;;1.60;;
40595;SDS011;26304;48.794;9.820;2023-10-19T00:57:29;1.50;;;1.40;;
40595;SDS011;26304;48.794;9.820;2023-10-19T00:59:55;1.88;;;1.77;;
40595;SDS011;26304;48.794;9.820;2023-10-19T01:02:33;1.60;;;1.50;;
40595;SDS011;26304;48.794;9.820;2023-10-19T01:05:04;1.60;;;1.50;;
40595;SDS011;26304;48.794;9.820;2023-10-19T01:07:27;1.58;;;1.48;;
40595;SDS011;26304;48.794;9.820;2023-10-19T01:09:51;1.80;;;1.70;;
40595;SDS011;26304;48.794;9.820;2023-10-19T01:12:14;2.10;;;1.67;;
40595;SDS011;26304;48.794;9.820;2023-10-19T01:14:46;1.88;;;1.77;;
40595;SDS011;26304;48.794;9.820;2023-10-19T01:17:22;1.90;;;1.80;;
40595;SDS011;26304;48.794;9.820;2023-10-19T01:19:48;1.92;;;1.35;;
40595;SDS011;26304;48.794;9.820;2023-10-19T01:22:11;1.60;;;1.50;;
40595;SDS011;26304;48.794;9.820;2023-10-19T01:24:38;1.50;;;1.40;;
40595;SDS011;26304;48.794;9.820;2023-10-19T01:27:01;1.20;;;1.20;;
40595;SDS011;26304;48.794;9.820;2023-10-19T01:29:25;1.35;;;1.35;;
40595;SDS011;26304;48.794;9.820;2023-10-19T01:31:48;1.58;;;1.48;;
40595;SDS011;26304;48.794;9.820;2023-10-19T01:34:17;1.60;;;1.50;;
40595;SDS011;26304;48.794;9.820;2023-10-19T01:36:41;1.60;;;1.50;;
40595;SDS011;26304;48.794;9.820;2023-10-19T01:39:04;1.25;;;1.25;;
40595;SDS011;26304;48.794;9.820;2023-10-19T01:41:32;1.58;;;1.48;;
40595;SDS011;26304;48.794;9.820;2023-10-19T01:43:55;1.67;;;1.58;;
40595;SDS011;26304;48.794;9.820;2023-10-19T01:46:25;1.70;;;1.55;;
40595;SDS011;26304;48.794;9.820;2023-10-19T01:48:53;1.80;;;1.58;;
40595;SDS011;26304;48.794;9.820;2023-10-19T01:51:16;1.95;;;1.85;;
40595;SDS011;26304;48.794;9.820;2023-10-19T01:53:38;1.80;;;1.70;;
40595;SDS011;26304;48.794;9.820;2023-10-19T01:56:00;2.40;;;1.98;;
40595;SDS011;26304;48.794;9.820;2023-10-19T01:58:27;2.25;;;2.15;;
40595;SDS011;26304;48.794;9.820;2023-10-19T02:00:50;2.35;;;2.15;;
40595;SDS011;26304;48.794;9.820;2023-10-19T02:03:11;2.55;;;2.35;;
40595;SDS011;26304;48.794;9.820;2023-10-19T02:05:34;2.15;;;2.05;;
40595;SDS011;26304;48.794;9.820;2023-10-19T02:08:00;2.08;;;1.95;;
40595;SDS011;26304;48.794;9.820;2023-10-19T02:10:23;2.20;;;2.00;;
40595;SDS011;26304;48.794;9.820;2023-10-19T02:12:48;2.45;;;2.25;;
40595;SDS011;26304;48.794;9.820;2023-10-19T02:15:17;2.33;;;2.13;;
40595;SDS011;26304;48.794;9.820;2023-10-19T02:17:39;2.63;;;2.42;;
40595;SDS011;26304;48.794;9.820;2023-10-19T02:20:01;2.45;;;2.25;;
40595;SDS011;26304;48.794;9.820;2023-10-19T02:22:34;2.33;;;2.13;;
40595;SDS011;26304;48.794;9.820;2023-10-19T02:24:56;2.60;;;2.40;;
40595;SDS011;26304;48.794;9.820;2023-10-19T02:27:19;2.40;;;2.20;;
40595;SDS011;26304;48.794;9.820;2023-10-19T02:29:41;2.30;;;2.10;;
40595;SDS011;26304;48.794;9.820;2023-10-19T02:32:06;2.25;;;2.15;;
40595;SDS011;26304;48.794;9.820;2023-10-19T02:34:28;2.30;;;2.10;;
40595;SDS011;26304;48.794;9.820;2023-10-19T02:36:51;2.72;;;2.17;;
40595;SDS011;26304;48.794;9.820;2023-10-19T02:39:14;2.58;;;2.38;;
40595;SDS011;26304;48.794;9.820;2023-10-19T02:41:36;2.63;;;2.00;;
40595;SDS011;26304;48.794;9.820;2023-10-19T02:44:00;2.60;;;2.40;;
40595;SDS011;26304;48.794;9.820;2023-10-19T02:46:26;2.47;;;2.28;;
40595;SDS011;26304;48.794;9.820;2023-10-19T02:48:50;2.00;;;1.90;;
40595;SDS011;26304;48.794;9.820;2023-10-19T02:51:11;2.25;;;2.05;;
40595;SDS011;26304;48.794;9.820;2023-10-19T02:53:34;2.28;;;2.15;;
40595;SDS011;26304;48.794;9.820;2023-10-19T02:55:55;2.70;;;2.25;;
40595;SDS011;26304;48.794;9.820;2023-10-19T02:58:20;2.47;;;2.28;;
40595;SDS011;26304;48.794;9.820;2023-10-19T03:00:42;2.40;;;2.20;;
40595;SDS011;26304;48.794;9.820;2023-10-19T03:03:07;2.08;;;1.98;;
40595;SDS011;26304;48.794;9.820;2023-10-19T03:05:30;1.90;;;1.80;;
40595;SDS011;26304;48.794;9.820;2023-10-19T03:07:52;2.13;;;2.03;;
40595;SDS011;26304;48.794;9.820;2023-10-19T03:10:14;2.05;;;1.95;;
40595;SDS011;26304;48.794;9.820;2023-10-19T03:12:44;2.17;;;1.98;;
40595;SDS011;26304;48.794;9.820;2023-10-19T03:15:06;1.70;;;1.60;;
40595;SDS011;26304;48.794;9.820;2023-10-19T03:17:29;2.33;;;2.13;;
40595;SDS011;26304;48.794;9.820;2023-10-19T03:19:51;2.10;;;1.90;;
40595;SDS011;26304;48.794;9.820;2023-10-19T03:22:15;1.80;;;1.70;;
40595;SDS011;26304;48.794;9.820;2023-10-19T03:24:37;1.95;;;1.85;;
40595;SDS011;26304;48.794;9.820;2023-10-19T03:27:01;2.15;;;1.95;;
40595;SDS011;26304;48.794;9.820;2023-10-19T03:29:29;1.80;;;1.70;;
40595;SDS011;26304;48.794;9.820;2023-10-19T03:31:52;2.08;;;1.95;;
40595;SDS011;26304;48.794;9.820;2023-10-19T03:34:15;1.98;;;1.88;;
40595;SDS011;26304;48.794;9.820;2023-10-19T03:36:38;2.28;;;1.83;;
40595;SDS011;26304;48.794;9.820;2023-10-19T03:39:02;2.10;;;1.77;;
40595;SDS011;26304;48.794;9.820;2023-10-19T03:41:32;1.77;;;1.67;;
40595;SDS011;26304;48.794;9.820;2023-10-19T03:43:56;1.88;;;1.77;;
40595;SDS011;26304;48.794;9.820;2023-10-19T03:46:19;2.00;;;1.90;;
40595;SDS011;26304;48.794;9.820;2023-10-19T03:48:49;1.92;;;1.80;;
40595;SDS011;26304;48.794;9.820;2023-10-19T03:51:11;2.03;;;1.83;;
40595;SDS011;26304;48.794;9.820;2023-10-19T03:53:34;2.10;;;1.90;;
40595;SDS011;26304;48.794;9.820;2023-10-19T03:55:59;1.90;;;1.80;;
40595;SDS011;26304;48.794;9.820;2023-10-19T03:58:24;2.10;;;1.95;;
40595;SDS011;26304;48.794;9.820;2023-10-19T04:00:49;1.83;;;1.65;;
40595;SDS011;26304;48.794;9.820;2023-10-19T04:03:12;1.77;;;1.67;;
40595;SDS011;26304;48.794;9.820;2023-10-19T04:05:34;1.80;;;1.70;;
40595;SDS011;26304;48.794;9.820;2023-10-19T04:07:59;1.75;;;1.65;;
40595;SDS011;26304;48.794;9.820;2023-10-19T04:10:33;1.90;;;1.73;;
40595;SDS011;26304;48.794;9.820;2023-10-19T04:13:02;1.90;;;1.80;;
40595;SDS011;26304;48.794;9.820;2023-10-19T04:15:25;1.70;;;1.60;;
40595;SDS011;26304;48.794;9.820;2023-10-19T04:17:49;2.00;;;1.90;;
40595;SDS011;26304;48.794;9.820;2023-10-19T04:20:14;1.73;;;1.63;;
40595;SDS011;26304;48.794;9.820;2023-10-19T04:22:54;1.98;;;1.80;;
40595;SDS011;26304;48.794;9.820;2023-10-19T04:25:17;1.75;;;1.65;;
40595;SDS011;26304;48.794;9.820;2023-10-19T04:27:41;1.95;;;1.75;;
40595;SDS011;26304;48.794;9.820;2023-10-19T04:30:06;2.13;;;1.90;;
40595;SDS011;26304;48.794;9.820;2023-10-19T04:32:36;1.77;;;1.67;;
40595;SDS011;26304;48.794;9.820;2023-10-19T04:35:00;1.88;;;1.70;;
40595;SDS011;26304;48.794;9.820;2023-10-19T04:37:24;1.75;;;1.65;;
40595;SDS011;26304;48.794;9.820;2023-10-19T04:39:46;1.67;;;1.42;;
40595;SDS011;26304;48.794;9.820;2023-10-19T04:42:10;1.80;;;1.70;;
40595;SDS011;26304;48.794;9.820;2023-10-19T04:44:33;2.55;;;1.50;;
40595;SDS011;26304;48.794;9.820;2023-10-19T04:46:56;1.42;;;1.33;;
40595;SDS011;26304;48.794;9.820;2023-10-19T04:49:19;1.60;;;1.50;;
40595;SDS011;26304;48.794;9.820;2023-10-19T04:51:41;1.98;;;1.77;;
40595;SDS011;26304;48.794;9.820;2023-10-19T04:54:04;1.30;;;1.20;;
40595;SDS011;26304;48.794;9.820;2023-10-19T04:56:29;2.55;;;1.60;;
40595;SDS011;26304;48.794;9.820;2023-10-19T04:58:53;1.40;;;1.30;;
40595;SDS011;26304;48.794;9.820;2023-10-19T05:01:15;1.60;;;1.50;;
40595;SDS011;26304;48.794;9.820;2023-10-19T05:03:39;1.60;;;1.50;;
40595;SDS011;26304;48.794;9.820;2023-10-19T05:06:01;1.48;;;1.38;;
40595;SDS011;26304;48.794;9.820;2023-10-19T05:08:24;1.88;;;1.77;;
40595;SDS011;26304;48.794;9.820;2023-10-19T05:10:46;1.50;;;1.40;;
40595;SDS011;26304;48.794;9.820;2023-10-19T05:13:09;2.05;;;1.95;;
40595;SDS011;26304;48.794;9.820;2023-10-19T05:15:32;2.03;;;1.92;;
40595;SDS011;26304;48.794;9.820;2023-10-19T05:17:56;1.90;;;1.70;;
40595;SDS011;26304;48.794;9.820;2023-10-19T05:20:21;1.60;;;1.50;;
40595;SDS011;26304;48.794;9.820;2023-10-19T05:22:44;1.55;;;1.45;;
40595;SDS011;26304;48.794;9.820;2023-10-19T05:25:07;2.38;;;1.70;;
40595;SDS011;26304;48.794;9.820;2023-10-19T05:27:29;1.60;;;1.50;;
40595;SDS011;26304;48.794;9.820;2023-10-19T05:29:52;1.50;;;1.40;;
40595;SDS011;26304;48.794;9.820;2023-10-19T05:32:16;1.63;;;1.52;;
40595;SDS011;26304;48.794;9.820;2023-10-19T05:34:38;1.83;;;1.55;;
40595;SDS011;26304;48.794;9.820;2023-10-19T05:37:02;1.92;;;1.83;;
40595;SDS011;26304;48.794;9.820;2023-10-19T05:39:26;1.50;;;1.40;;
40595;SDS011;26304;48.794;9.820;2023-10-19T05:41:48;1.88;;;1.42;;
40595;SDS011;26304;48.794;9.820;2023-10-19T05:44:11;1.85;;;1.55;;
40595;SDS011;26304;48.794;9.820;2023-10-19T05:46:33;2.95;;;1.85;;
40595;SDS011;26304;48.794;9.820;2023-10-19T05:48:56;1.80;;;1.70;;
40595;SDS011;26304;48.794;9.820;2023-10-19T05:51:19;2.00;;;1.70;;
40595;SDS011;26304;48.794;9.820;2023-10-19T05:53:44;2.03;;;1.75;;
40595;SDS011;26304;48.794;9.820;2023-10-19T05:56:06;1.75;;;1.65;;
40595;SDS011;26304;48.794;9.820;2023-10-19T05:58:28;1.60;;;1.50;;
40595;SDS011;26304;48.794;9.820;2023-10-19T06:00:51;1.85;;;1.70;;
40595;SDS011;26304;48.794;9.820;2023-10-19T06:03:14;3.20;;;2.00;;
40595;SDS011;26304;48.794;9.820;2023-10-19T06:05:36;2.53;;;1.85;;
40595;SDS011;26304;48.794;9.820;2023-10-19T06:07:58;1.77;;;1.63;;
40595;SDS011;26304;48.794;9.820;2023-10-19T06:10:26;1.80;;;1.70;;
40595;SDS011;26304;48.794;9.820;2023-10-19T06:12:50;1.77;;;1.67;;
40595;SDS011;26304;48.794;9.820;2023-10-19T06:15:13;2.88;;;2.00;;
40595;SDS011;26304;48.794;9.820;2023-10-19T06:17:37;1.80;;;1.70;;
40595;SDS011;26304;48.794;9.820;2023-10-19T06:19:59;1.70;;;1.60;;
40595;SDS011;26304;48.794;9.820;2023-10-19T06:22:22;2.17;;;1.48;;
40595;SDS011;26304;48.794;9.820;2023-10-19T06:24:44;1.80;;;1.70;;
40595;SDS011;26304;48.794;9.820;2023-10-19T06:27:08;1.92;;;1.30;;
40595;SDS011;26304;48.794;9.820;2023-10-19T06:29:30;1.90;;;1.75;;
40595;SDS011;26304;48.794;9.820;2023-10-19T06:31:52;3.33;;;2.05;;
40595;SDS011;26304;48.794;9.820;2023-10-19T06:34:15;1.90;;;1.80;;
40595;SDS011;26304;48.794;9.820;2023-10-19T06:36:38;2.70;;;1.90;;
40595;SDS011;26304;48.794;9.820;2023-10-19T06:39:00;2.35;;;1.73;;
40595;SDS011;26304;48.794;9.820;2023-10-19T06:41:27;2.03;;;1.85;;
40595;SDS011;26304;48.794;9.820;2023-10-19T06:43:50;3.65;;;1.70;;
40595;SDS011;26304;48.794;9.820;2023-10-19T06:46:13;1.92;;;1.65;;
40595;SDS011;26304;48.794;9.820;2023-10-19T06:48:35;1.55;;;1.45;;
40595;SDS011;26304;48.794;9.820;2023-10-19T06:50:58;1.50;;;1.40;;
40595;SDS011;26304;48.794;9.820;2023-10-19T06:53:21;1.65;;;1.55;;
40595;SDS011;26304;48.794;9.820;2023-10-19T06:55:46;2.03;;;1.90;;
40595;SDS011;26304;48.794;9.820;2023-10-19T06:58:08;1.90;;;1.80;;
40595;SDS011;26304;48.794;9.820;2023-10-19T07:00:33;2.20;;;1.63;;
40595;SDS011;26304;48.794;9.820;2023-10-19T07:03:03;1.83;;;1.73;;
40595;SDS011;26304;48.794;9.820;2023-10-19T07:05:25;2.15;;;1.60;;
40595;SDS011;26304;48.794;9.820;2023-10-19T07:07:51;1.42;;;1.33;;
40595;SDS011;26304;48.794;9.820;2023-10-19T07:10:15;3.92;;;1.67;;
40595;SDS011;26304;48.794;9.820;2023-10-19T07:12:38;1.20;;;1.20;;
40595;SDS011;26304;48.794;9.820;2023-10-19T07:15:02;1.55;;;1.45;;
40595;SDS011;26304;48.794;9.820;2023-10-19T07:17:29;1.63;;;1.52;;
40595;SDS011;26304;48.794;9.820;2023-10-19T07:19:52;1.80;;;1.70;;
40595;SDS011;26304;48.794;9.820;2023-10-19T07:22:15;2.00;;;1.90;;
40595;SDS011;26304;48.794;9.820;2023-10-19T07:24:37;1.70;;;1.58;;
40595;SDS011;26304;48.794;9.820;2023-10-19T07:27:00;2.35;;;1.65;;
40595;SDS011;26304;48.794;9.820;2023-10-19T07:29:28;1.90;;;1.70;;
40595;SDS011;26304;48.794;9.820;2023-10-19T07:31:52;1.75;;;1.65;;
40595;SDS011;26304;48.794;9.820;2023-10-19T07:34:17;2.85;;;1.90;;
40595;SDS011;26304;48.794;9.820;2023-10-19T07:36:46;1.73;;;1.63;;
40595;SDS011;26304;48.794;9.820;2023-10-19T07:39:08;2.53;;;1.90;;
40595;SDS011;26304;48.794;9.820;2023-10-19T07:41:34;2.25;;;1.63;;
40595;SDS011;26304;48.794;9.820;2023-10-19T07:43:57;1.92;;;1.77;;
40595;SDS011;26304;48.794;9.820;2023-10-19T07:46:19;1.60;;;1.50;;
40595;SDS011;26304;48.794;9.820;2023-10-19T07:48:42;1.77;;;1.67;;
40595;SDS011;26304;48.794;9.820;2023-10-19T07:51:06;2.47;;;1.70;;
40595;SDS011;26304;48.794;9.820;2023-10-19T07:53:32;2.20;;;2.00;;
40595;SDS011;26304;48.794;9.820;2023-10-19T07:55:54;1.90;;;1.60;;
40595;SDS011;26304;48.794;9.820;2023-10-19T07:58:18;1.67;;;1.58;;
40595;SDS011;26304;48.794;9.820;2023-10-19T08:00:40;1.73;;;1.38;;
40595;SDS011;26304;48.794;9.820;2023-10-19T08:03:03;1.85;;;1.73;;
40595;SDS011;26304;48.794;9.820;2023-10-19T08:05:26;1.65;;;1.55;;
40595;SDS011;26304;48.794;9.820;2023-10-19T08:07:50;1.70;;;1.60;;
40595;SDS011;26304;48.794;9.820;2023-10-19T08:10:13;2.10;;;2.00;;
40595;SDS011;26304;48.794;9.820;2023-10-19T08:12:37;3.40;;;3.15;;
40595;SDS011;26304;48.794;9.820;2023-10-19T08:15:02;2.97;;;2.78;;
40595;SDS011;26304;48.794;9.820;2023-10-19T08:17:27;4.57;;;3.33;;
40595;SDS011;26304;48.794;9.820;2023-10-19T08:19:50;3.20;;;2.90;;
40595;SDS011;26304;48.794;9.820;2023-10-19T08:22:13;3.00;;;2.80;;
40595;SDS011;26304;48.794;9.820;2023-10-19T08:24:37;3.40;;;3.10;;
40595;SDS011;26304;48.794;9.820;2023-10-19T08:27:04;3.45;;;2.97;;
40595;SDS011;26304;48.794;9.820;2023-10-19T08:29:27;2.92;;;2.72;;
40595;SDS011;26304;48.794;9.820;2023-10-19T08:31:51;3.67;;;3.38;;
40595;SDS011;26304;48.794;9.820;2023-10-19T08:34:13;3.70;;;3.10;;
40595;SDS011;26304;48.794;9.820;2023-10-19T08:36:36;4.88;;;3.25;;
40595;SDS011;26304;48.794;9.820;2023-10-19T08:38:59;2.97;;;2.78;;
40595;SDS011;26304;48.794;9.820;2023-10-19T08:41:27;3.00;;;2.78;;
40595;SDS011;26304;48.794;9.820;2023-10-19T08:43:50;3.13;;;2.85;;
40595;SDS011;26304;48.794;9.820;2023-10-19T08:46:12;2.83;;;2.63;;
40595;SDS011;26304;48.794;9.820;2023-10-19T08:48:35;3.17;;;2.70;;
40595;SDS011;26304;48.794;9.820;2023-10-19T08:50:59;2.85;;;2.65;;
40595;SDS011;26304;48.794;9.820;2023-10-19T08:53:21;4.10;;;3.00;;
40595;SDS011;26304;48.794;9.820;2023-10-19T08:55:46;3.10;;;2.90;;
40595;SDS011;26304;48.794;9.820;2023-10-19T08:58:11;2.72;;;2.53;;
40595;SDS011;26304;48.794;9.820;2023-10-19T09:00:42;2.95;;;2.75;;
40595;SDS011;26304;48.794;9.820;2023-10-19T09:03:07;2.97;;;2.78;;
40595;SDS011;26304;48.794;9.820;2023-10-19T09:05:37;3.03;;;2.83;;
40595;SDS011;26304;48.794;9.820;2023-10-19T09:08:03;3.25;;;3.05;;
40595;SDS011;26304;48.794;9.820;2023-10-19T09:10:28;3.95;;;3.28;;
40595;SDS011;26304;48.794;9.820;2023-10-19T09:12:58;3.30;;;3.10;;
40595;SDS011;26304;48.794;9.820;2023-10-19T09:15:23;3.13;;;2.92;;
40595;SDS011;26304;48.794;9.820;2023-10-19T09:17:47;3.35;;;3.15;;
40595;SDS011;26304;48.794;9.820;2023-10-19T09:20:15;3.40;;;3.20;;
40595;SDS011;26304;48.794;9.820;2023-10-19T09:22:48;3.30;;;3.10;;
40595;SDS011;26304;48.794;9.820;2023-10-19T09:25:11;3.20;;;3.00;;
40595;SDS011;26304;48.794;9.820;2023-10-19T09:27:34;3.15;;;2.95;;
40595;SDS011;26304;48.794;9.820;2023-10-19T09:29:56;3.45;;;3.15;;
40595;SDS011;26304;48.794;9.820;2023-10-19T09:32:20;3.35;;;3.05;;
40595;SDS011;26304;48.794;9.820;2023-10-19T09:34:43;2.80;;;2.60;;
40595;SDS011;26304;48.794;9.820;2023-10-19T09:37:08;3.22;;;3.03;;
40595;SDS011;26304;48.794;9.820;2023-10-19T09:39:32;2.95;;;2.75;;
40595;SDS011;26304;48.794;9.820;2023-10-19T09:41:56;3.20;;;3.00;;
40595;SDS011;26304;48.794;9.820;2023-10-19T09:44:22;3.55;;;3.25;;
40595;SDS011;26304;48.794;9.820;2023-10-19T09:46:47;3.80;;;3.13;;
40595;SDS011;26304;48.794;9.820;2023-10-19T09:49:12;3.17;;;2.88;;
40595;SDS011;26304;48.794;9.820;2023-10-19T09:51:39;3.20;;;3.00;;
40595;SDS011;26304;48.794;9.820;2023-10-19T09:54:04;3.22;;;3.03;;
40595;SDS011;26304;48.794;9.820;2023-10-19T09:56:35;3.17;;;2.65;;
40595;SDS011;26304;48.794;9.820;2023-10-19T09:59:02;2.97;;;2.70;;
40595;SDS011;26304;48.794;9.820;2023-10-19T10:01:27;3.17;;;2.97;;
40595;SDS011;26304;48.794;9.820;2023-10-19T10:03:50;3.55;;;3.25;;
40595;SDS011;26304;48.794;9.820;2023-10-19T10:06:14;3.05;;;2.80;;
40595;SDS011;26304;48.794;9.820;2023-10-19T10:08:41;2.70;;;2.50;;
40595;SDS011;26304;48.794;9.820;2023-10-19T10:11:16;3.15;;;2.88;;
40595;SDS011;26304;48.794;9.820;2023-10-19T10:13:42;2.88;;;2.67;;
40595;SDS011;26304;48.794;9.820;2023-10-19T10:16:06;3.20;;;3.00;;
40595;SDS011;26304;48.794;9.820;2023-10-19T10:18:29;2.63;;;2.45;;
40595;SDS011;26304;48.794;9.820;2023-10-19T10:21:04;3.03;;;2.83;;
40595;SDS011;26304;48.794;9.820;2023-10-19T10:23:30;2.58;;;2.40;;
40595;SDS011;26304;48.794;9.820;2023-10-19T10:25:53;2.75;;;2.42;;
40595;SDS011;26304;48.794;9.820;2023-10-19T10:28:19;3.47;;;2.70;;
40595;SDS011;26304;48.794;9.820;2023-10-19T10:33:37;3.13;;;2.85;;
40595;SDS011;26304;48.794;9.820;2023-10-19T10:36:00;2.97;;;2.78;;
40595;SDS011;26304;48.794;9.820;2023-10-19T10:38:23;2.72;;;2.53;;
40595;SDS011;26304;48.794;9.820;2023-10-19T10:40:47;3.25;;;2.95;;
40595;SDS011;26304;48.794;9.820;2023-10-19T10:43:09;3.08;;;2.80;;
40595;SDS011;26304;48.794;9.820;2023-10-19T10:45:32;3.30;;;2.80;;
40595;SDS011;26304;48.794;9.820;2023-10-19T10:47:54;2.60;;;2.42;;
40595;SDS011;26304;48.794;9.820;2023-10-19T10:50:19;2.85;;;2.65;;
40595;SDS011;26304;48.794;9.820;2023-10-19T10:52:45;2.78;;;2.58;;
40595;SDS011;26304;48.794;9.820;2023-10-19T10:55:07;2.80;;;2.60;;
40595;SDS011;26304;48.794;9.820;2023-10-19T10:57:34;2.40;;;2.30;;
40595;SDS011;26304;48.794;9.820;2023-10-19T11:00:00;2.83;;;2.63;;
40595;SDS011;26304;48.794;9.820;2023-10-19T11:02:25;2.70;;;2.50;;
40595;SDS011;26304;48.794;9.820;2023-10-19T11:04:48;2.70;;;2.50;;
40595;SDS011;26304;48.794;9.820;2023-10-19T11:07:17;2.97;;;2.67;;
40595;SDS011;26304;48.794;9.820;2023-10-19T11:09:43;2.88;;;2.67;;
40595;SDS011;26304;48.794;9.820;2023-10-19T11:12:10;2.70;;;2.50;;
40595;SDS011;26304;48.794;9.820;2023-10-19T11:14:34;2.40;;;2.30;;
40595;SDS011;26304;48.794;9.820;2023-10-19T11:17:10;2.40;;;2.30;;
40595;SDS011;26304;48.794;9.820;2023-10-19T11:19:39;3.00;;;2.80;;
40595;SDS011;26304;48.794;9.820;2023-10-19T11:22:01;2.33;;;2.22;;
40595;SDS011;26304;48.794;9.820;2023-10-19T11:24:25;2.70;;;2.50;;
40595;SDS011;26304;48.794;9.820;2023-10-19T11:26:49;2.55;;;2.45;;
40595;SDS011;26304;48.794;9.820;2023-10-19T11:29:16;2.63;;;2.42;;
40595;SDS011;26304;48.794;9.820;2023-10-19T11:31:40;2.63;;;2.53;;
40595;SDS011;26304;48.794;9.820;2023-10-19T11:34:02;2.72;;;2.53;;
40595;SDS011;26304;48.794;9.820;2023-10-19T11:36:25;2.47;;;2.20;;
40595;SDS011;26304;48.794;9.820;2023-10-19T11:38:48;2.78;;;2.47;;
40595;SDS011;26304;48.794;9.820;2023-10-19T11:41:13;2.65;;;2.40;;
40595;SDS011;26304;48.794;9.820;2023-10-19T11:43:39;4.93;;;2.40;;
40595;SDS011;26304;48.794;9.820;2023-10-19T11:46:03;5.00;;;2.53;;
40595;SDS011;26304;48.794;9.820;2023-10-19T11:48:27;3.53;;;2.70;;
40595;SDS011;26304;48.794;9.820;2023-10-19T11:50:50;4.40;;;2.70;;
40595;SDS011;26304;48.794;9.820;2023-10-19T11:53:12;3.45;;;2.60;;
40595;SDS011;26304;48.794;9.820;2023-10-19T11:55:34;4.32;;;2.92;;
40595;SDS011;26304;48.794;9.820;2023-10-19T11:57:58;3.20;;;2.90;;
40595;SDS011;26304;48.794;9.820;2023-10-19T12:00:22;6.32;;;2.83;;
40595;SDS011;26304;48.794;9.820;2023-10-19T12:02:54;5.88;;;2.67;;
40595;SDS011;26304;48.794;9.820;2023-10-19T12:05:18;3.45;;;2.90;;
40595;SDS011;26304;48.794;9.820;2023-10-19T12:07:40;3.20;;;2.90;;
40595;SDS011;26304;48.794;9.820;2023-10-19T12:10:06;2.97;;;2.63;;
40595;SDS011;26304;48.794;9.820;2023-10-19T12:12:30;5.57;;;2.80;;
40595;SDS011;26304;48.794;9.820;2023-10-19T12:14:53;6.00;;;3.00;;
40595;SDS011;26304;48.794;9.820;2023-10-19T12:17:16;3.78;;;2.58;;
40595;SDS011;26304;48.794;9.820;2023-10-19T12:19:38;5.55;;;2.60;;
40595;SDS011;26304;48.794;9.820;2023-10-19T12:22:03;2.85;;;2.55;;
40595;SDS011;26304;48.794;9.820;2023-10-19T12:24:25;2.60;;;2.40;;
40595;SDS011;26304;48.794;9.820;2023-10-19T12:26:50;6.05;;;2.55;;
40595;SDS011;26304;48.794;9.820;2023-10-19T12:29:14;5.18;;;3.25;;
40595;SDS011;26304;48.794;9.820;2023-10-19T12:31:38;2.88;;;2.63;;
40595;SDS011;26304;48.794;9.820;2023-10-19T12:34:01;2.78;;;2.58;;
40595;SDS011;26304;48.794;9.820;2023-10-19T12:36:23;3.20;;;2.80;;
40595;SDS011;26304;48.794;9.820;2023-10-19T12:38:54;3.38;;;3.00;;
40595;SDS011;26304;48.794;9.820;2023-10-19T12:41:16;2.70;;;2.50;;
40595;SDS011;26304;48.794;9.820;2023-10-19T12:43:39;3.63;;;2.92;;
40595;SDS011;26304;48.794;9.820;2023-10-19T12:46:08;4.30;;;2.75;;
40595;SDS011;26304;48.794;9.820;2023-10-19T12:48:30;7.82;;;2.95;;
40595;SDS011;26304;48.794;9.820;2023-10-19T12:50:54;3.25;;;2.70;;
40595;SDS011;26304;48.794;9.820;2023-10-19T12:53:19;5.15;;;2.70;;
40595;SDS011;26304;48.794;9.820;2023-10-19T12:55:46;3.47;;;2.55;;
40595;SDS011;26304;48.794;9.820;2023-10-19T12:58:09;3.20;;;2.90;;
40595;SDS011;26304;48.794;9.820;2023-10-19T13:00:32;2.97;;;2.70;;
40595;SDS011;26304;48.794;9.820;2023-10-19T13:03:01;3.20;;;3.00;;
40595;SDS011;26304;48.794;9.820;2023-10-19T13:05:26;2.65;;;2.45;;
40595;SDS011;26304;48.794;9.820;2023-10-19T13:07:49;3.40;;;2.92;;
40595;SDS011;26304;48.794;9.820;2023-10-19T13:10:11;2.97;;;2.67;;
40595;SDS011;26304;48.794;9.820;2023-10-19T13:12:35;3.17;;;2.40;;
40595;SDS011;26304;48.794;9.820;2023-10-19T13:14:58;3.38;;;3.08;;
40595;SDS011;26304;48.794;9.820;2023-10-19T13:17:20;3.05;;;2.20;;
40595;SDS011;26304;48.794;9.820;2023-10-19T13:19:42;3.05;;;2.70;;
40595;SDS011;26304;48.794;9.820;2023-10-19T13:22:05;2.95;;;2.60;;
40595;SDS011;26304;48.794;9.820;2023-10-19T13:24:28;4.05;;;2.75;;
40595;SDS011;26304;48.794;9.820;2023-10-19T13:26:52;2.78;;;2.58;;
40595;SDS011;26304;48.794;9.820;2023-10-19T13:29:16;2.45;;;2.25;;
40595;SDS011;26304;48.794;9.820;2023-10-19T13:31:41;3.22;;;2.20;;
40595;SDS011;26304;48.794;9.820;2023-10-19T13:34:09;2.80;;;2.60;;
40595;SDS011;26304;48.794;9.820;2023-10-19T13:36:34;3.80;;;2.63;;
40595;SDS011;26304;48.794;9.820;2023-10-19T13:38:56;3.08;;;2.30;;
40595;SDS011;26304;48.794;9.820;2023-10-19T13:41:19;2.42;;;2.22;;
40595;SDS011;26304;48.794;9.820;2023-10-19T13:43:41;3.03;;;2.72;;
40595;SDS011;26304;48.794;9.820;2023-10-19T13:46:05;2.90;;;2.67;;
40595;SDS011;26304;48.794;9.820;2023-10-19T13:48:27;2.60;;;2.40;;
40595;SDS011;26304;48.794;9.820;2023-10-19T13:50:50;2.70;;;2.50;;
40595;SDS011;26304;48.794;9.820;2023-10-19T13:53:16;2.92;;;2.70;;
40595;SDS011;26304;48.794;9.820;2023-10-19T13:55:39;3.55;;;3.25;;
40595;SDS011;26304;48.794;9.820;2023-10-19T13:58:01;3.47;;;2.88;;
40595;SDS011;26304;48.794;9.820;2023-10-19T14:00:24;3.10;;;2.80;;
40595;SDS011;26304;48.794;9.820;2023-10-19T14:02:52;2.60;;;2.50;;
40595;SDS011;26304;48.794;9.820;2023-10-19T14:05:15;2.70;;;2.50;;
40595;SDS011;26304;48.794;9.820;2023-10-19T14:07:37;3.15;;;2.85;;
40595;SDS011;26304;48.794;9.820;2023-10-19T14:10:01;2.60;;;2.40;;
40595;SDS011;26304;48.794;9.820;2023-10-19T14:12:23;2.80;;;2.60;;
40595;SDS011;26304;48.794;9.820;2023-10-19T14:14:46;2.70;;;2.50;;
40595;SDS011;26304;48.794;9.820;2023-10-19T14:17:08;2.92;;;2.60;;
40595;SDS011;26304;48.794;9.820;2023-10-19T14:19:32;2.85;;;2.65;;
40595;SDS011;26304;48.794;9.820;2023-10-19T14:21:54;2.63;;;2.42;;
40595;SDS011;26304;48.794;9.820;2023-10-19T14:24:16;2.50;;;2.30;;
40595;SDS011;26304;48.794;9.820;2023-10-19T14:26:40;3.70;;;2.83;;
40595;SDS011;26304;48.794;9.820;2023-10-19T14:29:05;2.83;;;2.63;;
40595;SDS011;26304;48.794;9.820;2023-10-19T14:31:27;2.90;;;2.63;;
40595;SDS011;26304;48.794;9.820;2023-10-19T14:33:50;2.72;;;2.53;;